createdAt,value
2018-09-17T00:02:27.022Z,68.12
2018-09-17T00:04:57.480Z,68.04
2018-09-17T00:07:27.856Z,67.95
2018-09-17T00:09:58.412Z,67.97
2018-09-17T00:12:28.688Z,68.10
2018-09-17T00:14:59.169Z,67.29
2018-09-17T00:17:29.605Z,67.59
2018-09-17T00:20:00.114Z,67.71
2018-09-17T00:22:30.378Z,68.70
2018-09-17T00:25:00.683Z,68.85
2018-09-17T00:27:30.919Z,68.46
2018-09-17T00:30:01.377Z,68.74
2018-09-17T00:32:31.612Z,68.72
2018-09-17T00:35:02.006Z,69.24
2018-09-17T00:37:32.385Z,69.70
2018-09-17T00:40:02.871Z,69.15
2018-09-17T00:42:33.048Z,69.47
2018-09-17T00:45:03.419Z,69.62
2018-09-17T00:47:33.868Z,69.79
2018-09-17T00:50:04.459Z,70.17
2018-09-17T00:52:34.952Z,69.37
2018-09-17T00:55:05.327Z,69.75
2018-09-17T00:57:35.766Z,70.08
2018-09-17T01:00:06.205Z,70.00
2018-09-17T01:02:36.776Z,69.86
2018-09-17T01:05:07.471Z,70.22
2018-09-17T01:07:37.844Z,69.76
2018-09-17T01:10:08.297Z,71.17
2018-09-17T01:12:38.602Z,70.60
2018-09-17T01:15:08.979Z,71.40
2018-09-17T01:17:39.343Z,71.06
2018-09-17T01:20:10.052Z,70.47
2018-09-17T01:22:40.270Z,70.57
2018-09-17T01:25:10.723Z,71.19
2018-09-17T01:27:41.179Z,71.79
2018-09-17T01:30:12.168Z,71.25
2018-09-17T01:32:43.518Z,71.46
2018-09-17T01:35:14.034Z,71.10
2018-09-17T01:37:44.592Z,71.51
2018-09-17T01:40:14.907Z,71.46
2018-09-17T01:42:45.487Z,71.29
2018-09-17T01:45:15.908Z,71.48
2018-09-17T01:47:46.241Z,71.03
2018-09-17T01:50:16.563Z,71.75
2018-09-17T01:52:47.045Z,71.49
2018-09-17T01:55:17.455Z,71.96
2018-09-17T01:57:48.049Z,71.54
2018-09-17T02:00:18.525Z,71.88
2018-09-17T02:02:48.844Z,71.58
2018-09-17T02:05:19.203Z,71.79
2018-09-17T02:07:49.568Z,72.47
2018-09-17T02:10:19.985Z,72.11
2018-09-17T02:12:50.252Z,72.35
2018-09-17T02:15:20.438Z,72.22
2018-09-17T02:17:50.762Z,72.67
2018-09-17T02:20:21.236Z,72.26
2018-09-17T02:22:51.668Z,73.09
2018-09-17T02:25:22.116Z,73.08
2018-09-17T02:27:52.720Z,73.24
2018-09-17T02:30:23.116Z,73.54
2018-09-17T02:32:54.271Z,73.74
2018-09-17T02:35:24.608Z,73.45
2018-09-17T02:37:55.132Z,74.14
2018-09-17T02:40:25.428Z,73.88
2018-09-17T02:42:55.948Z,72.62
2018-09-17T02:45:26.403Z,73.11
2018-09-17T02:47:56.858Z,72.70
2018-09-17T02:50:27.157Z,72.61
2018-09-17T02:52:57.650Z,72.76
2018-09-17T02:55:28.044Z,73.56
2018-09-17T02:57:58.495Z,73.06
2018-09-17T03:00:28.839Z,73.30
2018-09-17T03:02:59.215Z,73.84
2018-09-17T03:05:29.626Z,73.99
2018-09-17T03:08:00.109Z,74.08
2018-09-17T03:10:30.696Z,74.13
2018-09-17T03:13:01.173Z,73.89
2018-09-17T03:15:48.944Z,73.93
2018-09-17T03:18:36.823Z,73.55
2018-09-17T03:21:08.195Z,73.64
2018-09-17T03:23:39.148Z,73.94
2018-09-17T03:26:09.660Z,73.91
2018-09-17T03:28:39.970Z,74.37
2018-09-17T03:31:10.557Z,73.89
2018-09-17T03:33:41.102Z,73.43
2018-09-17T03:36:11.506Z,73.26
2018-09-17T03:38:49.498Z,73.38
2018-09-17T03:41:20.702Z,74.12
2018-09-17T03:43:52.475Z,73.72
2018-09-17T03:46:22.861Z,73.48
2018-09-17T03:48:53.433Z,73.71
2018-09-17T03:51:23.840Z,73.57
2018-09-17T03:53:54.315Z,73.57
2018-09-17T03:56:24.548Z,73.85
2018-09-17T03:58:54.974Z,74.32
2018-09-17T04:01:25.304Z,74.43
2018-09-17T04:03:55.751Z,73.96
2018-09-17T04:06:26.257Z,74.06
2018-09-17T04:08:56.823Z,73.98
2018-09-17T04:11:27.530Z,73.75
2018-09-17T04:13:58.251Z,73.75
2018-09-17T04:16:28.506Z,73.52
2018-09-17T04:19:00.448Z,73.24
2018-09-17T04:21:30.887Z,73.60
2018-09-17T04:24:01.162Z,73.25
2018-09-17T04:26:31.369Z,73.65
2018-09-17T04:29:01.888Z,73.42
2018-09-17T04:31:32.257Z,74.12
2018-09-17T04:34:02.735Z,74.15
2018-09-17T04:36:33.171Z,73.80
2018-09-17T04:39:04.323Z,74.54
2018-09-17T04:41:35.590Z,74.31
2018-09-17T04:44:06.004Z,74.51
2018-09-17T04:46:36.408Z,74.05
2018-09-17T04:49:07.079Z,73.95
2018-09-17T04:51:37.495Z,74.39
2018-09-17T04:54:07.980Z,74.09
2018-09-17T04:56:38.590Z,73.81
2018-09-17T04:59:09.041Z,73.94
2018-09-17T05:01:39.438Z,73.51
2018-09-17T05:04:09.849Z,73.39
2018-09-17T05:06:40.277Z,73.14
2018-09-17T05:09:10.908Z,72.97
2018-09-17T05:11:41.136Z,72.47
2018-09-17T05:14:11.502Z,72.15
2018-09-17T05:16:41.869Z,72.62
2018-09-17T05:19:12.265Z,72.24
2018-09-17T05:21:43.572Z,71.70
2018-09-17T05:24:14.162Z,70.87
2018-09-17T05:26:45.078Z,70.81
2018-09-17T05:29:15.376Z,70.66
2018-09-17T05:31:45.716Z,70.50
2018-09-17T05:34:15.947Z,70.72
2018-09-17T05:36:46.364Z,69.26
2018-09-17T05:39:17.011Z,68.44
2018-09-17T05:41:47.409Z,67.49
2018-09-17T05:44:18.114Z,67.30
2018-09-17T05:46:48.604Z,67.65
2018-09-17T05:49:19.064Z,67.77
2018-09-17T05:51:49.382Z,66.37
2018-09-17T05:54:19.659Z,64.29
2018-09-17T05:56:50.156Z,65.45
2018-09-17T05:59:20.479Z,64.69
2018-09-17T06:01:51.459Z,62.88
2018-09-17T06:04:21.943Z,59.77
2018-09-17T06:06:52.474Z,58.02
2018-09-17T06:09:22.681Z,58.01
2018-09-17T06:11:53.031Z,57.05
2018-09-17T06:14:23.497Z,57.08
2018-09-17T06:16:54.002Z,57.56
2018-09-17T06:19:24.406Z,57.65
2018-09-17T06:21:54.728Z,57.57
2018-09-17T06:24:25.092Z,57.63
2018-09-17T06:26:55.392Z,56.39
2018-09-17T06:29:25.641Z,56.05
2018-09-17T06:31:56.115Z,55.91
2018-09-17T06:34:26.720Z,56.43
2018-09-17T06:39:27.912Z,56.05
2018-09-17T06:41:58.418Z,54.56
2018-09-17T06:44:28.740Z,54.15
2018-09-17T06:46:59.219Z,53.84
2018-09-17T06:49:29.715Z,53.29
2018-09-17T06:52:00.220Z,52.98
2018-09-17T06:54:30.686Z,54.25
2018-09-17T06:57:01.868Z,54.47
2018-09-17T06:59:32.342Z,54.89
2018-09-17T07:02:03.109Z,55.60
2018-09-17T07:04:33.700Z,56.48
2018-09-17T07:07:04.161Z,55.65
2018-09-17T07:09:34.483Z,57.76
2018-09-17T07:12:04.873Z,56.97
2018-09-17T07:14:35.163Z,57.17
2018-09-17T07:17:05.761Z,57.03
2018-09-17T07:19:36.117Z,57.52
2018-09-17T07:22:06.480Z,57.92
2018-09-17T07:24:36.903Z,57.02
2018-09-17T07:27:07.436Z,56.86
2018-09-17T07:29:37.863Z,56.27
2018-09-17T07:32:08.316Z,55.92
2018-09-17T07:34:38.676Z,55.07
2018-09-17T07:37:09.286Z,53.06
2018-09-17T07:39:39.729Z,52.57
2018-09-17T07:42:09.951Z,50.03
2018-09-17T07:44:40.317Z,49.37
2018-09-17T07:47:10.836Z,47.43
2018-09-17T07:49:41.188Z,47.56
2018-09-17T07:52:11.692Z,47.30
2018-09-17T07:54:42.107Z,46.42
2018-09-17T07:57:12.419Z,44.96
2018-09-17T07:59:42.796Z,42.89
2018-09-17T08:02:13.187Z,43.77
2018-09-17T08:04:43.569Z,42.30
2018-09-17T08:07:13.916Z,42.04
2018-09-17T08:09:44.405Z,40.31
2018-09-17T08:12:14.793Z,37.71
2018-09-17T08:14:45.216Z,37.42
2018-09-17T08:17:15.788Z,36.19
2018-09-17T08:19:46.226Z,35.43
2018-09-17T08:22:16.412Z,36.29
2018-09-17T08:24:46.809Z,37.12
2018-09-17T08:27:17.265Z,38.64
2018-09-17T08:29:47.675Z,38.18
2018-09-17T08:32:18.691Z,38.56
2018-09-17T08:34:49.047Z,38.84
2018-09-17T08:37:19.313Z,38.70
2018-09-17T08:39:49.765Z,38.61
2018-09-17T08:42:20.259Z,37.13
2018-09-17T08:44:50.800Z,37.73
2018-09-17T08:47:21.255Z,35.83
2018-09-17T08:49:51.679Z,35.18
2018-09-17T08:52:21.893Z,35.52
2018-09-17T08:54:57.479Z,37.25
2018-09-17T08:57:32.729Z,36.25
2018-09-17T09:00:07.953Z,35.99
2018-09-17T09:02:43.212Z,35.64
2018-09-17T09:05:18.949Z,35.46
2018-09-17T09:07:52.841Z,36.65
2018-09-17T09:10:28.869Z,36.79
2018-09-17T09:13:04.348Z,36.37
2018-09-17T09:15:39.680Z,35.97
2018-09-17T09:18:10.597Z,34.65
2018-09-17T09:20:40.868Z,37.26
2018-09-17T09:23:11.185Z,35.80
2018-09-17T09:25:41.689Z,34.69
2018-09-17T09:28:12.152Z,35.42
2018-09-17T09:30:42.657Z,35.61
2018-09-17T09:33:13.139Z,34.52
2018-09-17T09:35:43.600Z,34.65
2018-09-17T09:38:13.999Z,35.61
2018-09-17T09:40:44.456Z,35.17
2018-09-17T09:43:14.840Z,34.10
2018-09-17T09:45:45.298Z,35.33
2018-09-17T09:48:15.565Z,34.15
2018-09-17T09:50:46.048Z,34.98
2018-09-17T09:53:16.437Z,34.10
2018-09-17T09:55:47.055Z,34.92
2018-09-17T09:58:17.439Z,33.40
2018-09-17T10:00:52.722Z,34.97
2018-09-17T10:03:27.280Z,34.42
2018-09-17T10:05:57.737Z,34.70
2018-09-17T10:08:28.040Z,34.67
2018-09-17T10:11:03.365Z,34.49
2018-09-17T10:13:38.860Z,35.74
2018-09-17T10:16:14.173Z,34.30
2018-09-17T10:18:49.483Z,35.04
2018-09-17T10:21:20.148Z,34.51
2018-09-17T10:23:50.482Z,32.92
2018-09-17T10:26:20.984Z,34.80
2018-09-17T10:28:51.216Z,33.21
2018-09-17T10:31:21.679Z,33.30
2018-09-17T10:33:51.986Z,34.55
2018-09-17T10:36:22.868Z,33.46
2018-09-17T10:38:53.368Z,34.01
2018-09-17T10:41:23.745Z,33.46
2018-09-17T10:43:54.107Z,34.68
2018-09-17T10:46:24.418Z,34.20
2018-09-17T10:48:55.007Z,33.58
2018-09-17T10:51:25.382Z,33.91
2018-09-17T10:53:55.780Z,33.73
2018-09-17T10:56:26.206Z,33.62
2018-09-17T10:58:57.150Z,32.03
2018-09-17T11:01:27.574Z,32.88
2018-09-17T11:03:57.942Z,32.30
2018-09-17T11:06:28.733Z,32.29
2018-09-17T11:08:59.155Z,31.67
2018-09-17T11:11:29.404Z,32.56
2018-09-17T11:13:59.787Z,31.12
2018-09-17T11:16:30.283Z,32.98
2018-09-17T11:19:00.776Z,32.51
2018-09-17T11:21:31.245Z,31.74
2018-09-17T11:24:01.604Z,32.78
2018-09-17T11:26:32.106Z,31.50
2018-09-17T11:29:02.651Z,32.25
2018-09-17T11:31:33.231Z,32.39
2018-09-17T11:34:03.658Z,31.84
2018-09-17T11:36:34.028Z,33.08
2018-09-17T11:39:05.700Z,31.29
2018-09-17T11:41:36.108Z,32.81
2018-09-17T11:44:06.513Z,31.74
2018-09-17T11:46:38.529Z,32.11
2018-09-17T11:49:09.139Z,31.17
2018-09-17T11:51:40.060Z,32.48
2018-09-17T11:54:10.620Z,32.31
2018-09-17T11:56:41.280Z,32.24
2018-09-17T11:59:11.635Z,31.28
2018-09-17T12:01:47.160Z,31.76
2018-09-17T12:04:21.627Z,31.84
2018-09-17T12:07:56.972Z,30.39
2018-09-17T12:10:27.295Z,31.98
2018-09-17T12:12:57.847Z,32.18
2018-09-17T12:15:28.114Z,31.98
2018-09-17T12:17:58.369Z,31.29
2018-09-17T12:20:28.789Z,30.80
2018-09-17T12:22:59.164Z,30.92
2018-09-17T12:25:29.517Z,31.03
2018-09-17T12:28:01.155Z,31.50
2018-09-17T12:30:31.638Z,30.84
2018-09-17T12:33:02.384Z,31.33
2018-09-17T12:35:32.817Z,30.07
2018-09-17T12:38:03.091Z,31.00
2018-09-17T12:40:33.480Z,30.57
2018-09-17T12:43:03.997Z,30.30
2018-09-17T12:45:36.347Z,31.54
2018-09-17T12:48:06.818Z,31.16
2018-09-17T12:50:37.161Z,31.88
2018-09-17T12:53:07.531Z,30.73
2018-09-17T12:55:37.782Z,30.29
2018-09-17T12:58:08.232Z,31.58
2018-09-17T13:00:38.772Z,30.96
2018-09-17T13:03:09.137Z,30.95
2018-09-17T13:05:39.588Z,31.67
2018-09-17T13:08:09.963Z,31.84
2018-09-17T13:10:40.381Z,31.54
2018-09-17T13:13:10.727Z,30.83
2018-09-17T13:15:46.071Z,29.95
2018-09-17T13:18:16.321Z,29.89
2018-09-17T13:20:46.680Z,29.46
2018-09-17T13:23:17.028Z,30.10
2018-09-17T13:25:47.504Z,30.07
2018-09-17T13:28:18.151Z,31.10
2018-09-17T13:30:48.618Z,31.13
2018-09-17T13:33:18.873Z,30.86
2018-09-17T13:35:49.244Z,30.37
2018-09-17T13:38:19.657Z,30.17
2018-09-17T13:40:50.341Z,31.57
2018-09-17T13:43:20.808Z,30.42
2018-09-17T13:45:51.203Z,30.24
2018-09-17T13:48:21.907Z,30.77
2018-09-17T13:50:52.147Z,29.62
2018-09-17T13:53:22.683Z,30.23
2018-09-17T13:55:52.984Z,30.09
2018-09-17T13:58:23.486Z,31.28
2018-09-17T14:00:53.921Z,30.51
2018-09-17T14:03:24.215Z,30.66
2018-09-17T14:05:54.641Z,31.07
2018-09-17T14:08:25.122Z,31.09
2018-09-17T14:10:55.624Z,30.92
2018-09-17T14:13:26.361Z,29.81
2018-09-17T14:16:06.895Z,29.65
2018-09-17T14:18:38.063Z,29.86
2018-09-17T14:21:08.744Z,29.58
2018-09-17T14:23:39.135Z,30.04
2018-09-17T14:26:09.603Z,29.96
2018-09-17T14:28:40.114Z,29.32
2018-09-17T14:31:10.485Z,28.88
2018-09-17T14:33:41.543Z,29.60
2018-09-17T14:36:12.039Z,29.60
2018-09-17T14:38:42.384Z,30.62
2018-09-17T14:41:12.869Z,29.75
2018-09-17T14:43:43.483Z,29.62
2018-09-17T14:46:13.831Z,30.73
2018-09-17T14:48:44.522Z,30.54
2018-09-17T14:51:14.988Z,31.53
2018-09-17T14:53:45.331Z,31.29
2018-09-17T14:56:15.779Z,30.51
2018-09-17T14:58:46.395Z,31.10
2018-09-17T15:01:17.109Z,30.76
2018-09-17T15:03:47.452Z,31.09
2018-09-17T15:06:17.830Z,31.29
2018-09-17T15:08:48.288Z,30.31
2018-09-17T15:11:18.818Z,31.58
2018-09-17T15:13:49.372Z,30.94
2018-09-17T15:16:20.123Z,30.78
2018-09-17T15:18:50.548Z,30.33
2018-09-17T15:21:20.980Z,30.70
2018-09-17T15:23:51.327Z,30.51
2018-09-17T15:26:22.044Z,31.75
2018-09-17T15:28:52.435Z,31.34
2018-09-17T15:31:23.031Z,31.47
2018-09-17T15:33:53.404Z,31.25
2018-09-17T15:36:23.934Z,31.41
2018-09-17T15:38:54.424Z,32.03
2018-09-17T15:41:25.085Z,31.42
2018-09-17T15:43:55.276Z,31.36
2018-09-17T15:46:25.783Z,32.38
2018-09-17T15:48:56.155Z,31.89
2018-09-17T15:51:26.560Z,32.87
2018-09-17T15:53:56.943Z,32.58
2018-09-17T15:56:27.235Z,33.26
2018-09-17T15:58:57.659Z,33.89
2018-09-17T16:01:28.138Z,33.57
2018-09-17T16:03:59.307Z,33.25
2018-09-17T16:06:29.772Z,34.62
2018-09-17T16:09:00.332Z,34.92
2018-09-17T16:11:31.023Z,34.24
2018-09-17T16:14:01.344Z,33.83
2018-09-17T16:16:31.899Z,34.16
2018-09-17T16:19:02.036Z,34.79
2018-09-17T16:21:32.794Z,34.85
2018-09-17T16:24:03.233Z,35.16
2018-09-17T16:26:33.537Z,35.81
2018-09-17T16:29:04.156Z,35.42
2018-09-17T16:31:34.521Z,36.90
2018-09-17T16:34:04.977Z,36.34
2018-09-17T16:36:35.400Z,36.51
2018-09-17T16:39:08.057Z,37.36
2018-09-17T16:41:38.699Z,37.24
2018-09-17T16:44:09.272Z,38.99
2018-09-17T16:46:40.029Z,39.20
2018-09-17T16:49:10.649Z,40.50
2018-09-17T16:51:41.140Z,40.75
2018-09-17T16:54:11.616Z,40.44
2018-09-17T16:56:41.953Z,41.92
2018-09-17T16:59:12.486Z,42.28
2018-09-17T17:01:42.792Z,41.53
2018-09-17T17:04:13.162Z,43.19
2018-09-17T17:06:43.634Z,44.68
2018-09-17T17:09:13.871Z,44.89
2018-09-17T17:11:44.140Z,46.11
2018-09-17T17:14:14.495Z,46.56
2018-09-17T17:16:45.117Z,46.84
2018-09-17T17:19:15.595Z,48.11
2018-09-17T17:21:46.059Z,47.87
2018-09-17T17:24:16.573Z,47.62
2018-09-17T17:26:46.967Z,48.24
2018-09-17T17:29:17.573Z,48.96
2018-09-17T17:31:47.888Z,49.36
2018-09-17T17:34:18.294Z,49.57
2018-09-17T17:36:48.816Z,50.64
2018-09-17T17:39:19.410Z,51.05
2018-09-17T17:41:49.663Z,50.60
2018-09-17T17:44:20.238Z,51.28
2018-09-17T17:46:50.846Z,51.10
2018-09-17T17:49:21.364Z,53.32
2018-09-17T17:51:51.970Z,52.43
2018-09-17T17:54:22.478Z,51.90
2018-09-17T17:56:52.792Z,51.88
2018-09-17T17:59:23.271Z,52.59
2018-09-17T18:01:53.791Z,52.28
2018-09-17T18:04:24.288Z,52.85
2018-09-17T18:06:54.623Z,53.97
2018-09-17T18:09:25.168Z,54.21
2018-09-17T18:11:55.603Z,53.44
2018-09-17T18:14:26.176Z,54.04
2018-09-17T18:16:56.552Z,54.98
2018-09-17T18:19:26.937Z,55.57
2018-09-17T18:21:57.431Z,56.16
2018-09-17T18:24:28.296Z,55.92
2018-09-17T18:26:58.854Z,55.54
2018-09-17T18:29:29.323Z,56.47
2018-09-17T18:31:59.957Z,55.62
2018-09-17T18:34:30.448Z,55.83
2018-09-17T18:37:00.769Z,54.81
2018-09-17T18:39:31.244Z,54.93
2018-09-17T18:42:01.608Z,56.27
2018-09-17T18:44:32.113Z,55.67
2018-09-17T18:47:02.809Z,56.56
2018-09-17T18:49:33.293Z,56.86
2018-09-17T18:52:03.857Z,56.96
2018-09-17T18:54:34.375Z,57.62
2018-09-17T18:57:04.742Z,58.09
2018-09-17T18:59:35.580Z,58.04
2018-09-17T19:02:06.112Z,58.54
2018-09-17T19:04:36.588Z,57.93
2018-09-17T19:07:07.511Z,58.59
2018-09-17T19:09:50.228Z,58.27
2018-09-17T19:12:21.551Z,58.68
2018-09-17T19:14:56.887Z,59.09
2018-09-17T19:17:32.635Z,59.59
2018-09-17T19:20:03.231Z,60.10
2018-09-17T19:22:38.889Z,60.29
2018-09-17T19:25:10.848Z,60.18
2018-09-17T19:27:46.291Z,60.53
2018-09-17T19:30:17.011Z,61.02
2018-09-17T19:32:47.235Z,61.41
2018-09-17T19:35:17.707Z,61.37
2018-09-17T19:37:53.252Z,61.54
2018-09-17T19:40:23.596Z,62.27
2018-09-17T19:42:53.995Z,61.38
2018-09-17T19:45:29.536Z,61.63
2018-09-17T19:48:00.022Z,61.71
2018-09-17T19:50:35.775Z,60.75
2018-09-17T19:53:06.300Z,60.05
2018-09-17T19:55:36.746Z,61.35
2018-09-17T19:58:12.280Z,60.91
2018-09-17T20:00:42.799Z,60.73
2018-09-17T20:03:13.328Z,60.37
2018-09-17T20:05:48.823Z,58.72
2018-09-17T20:08:19.420Z,59.71
2018-09-17T20:10:50.116Z,60.39
2018-09-17T20:13:20.445Z,60.22
2018-09-17T20:15:50.759Z,60.19
2018-09-17T20:18:21.134Z,60.52
2018-09-17T20:20:51.621Z,60.44
2018-09-17T20:23:22.871Z,60.92
2018-09-17T20:25:53.187Z,61.10
2018-09-17T20:28:23.570Z,60.40
2018-09-17T20:30:54.592Z,60.78
2018-09-17T20:33:30.418Z,61.18
2018-09-17T20:36:01.113Z,61.03
2018-09-17T20:38:31.521Z,60.81
2018-09-17T20:41:01.842Z,60.83
2018-09-17T20:43:32.116Z,61.33
2018-09-17T20:46:02.621Z,60.69
2018-09-17T20:48:33.019Z,60.67
2018-09-17T20:51:03.477Z,60.89
2018-09-17T20:53:33.976Z,60.56
2018-09-17T20:56:04.318Z,61.60
2018-09-17T20:58:34.655Z,61.32
2018-09-17T21:01:05.230Z,61.42
2018-09-17T21:03:35.453Z,60.70
2018-09-17T21:06:05.899Z,60.39
2018-09-17T21:08:36.144Z,60.21
2018-09-17T21:11:06.324Z,59.35
2018-09-17T21:13:36.722Z,60.35
2018-09-17T21:16:07.217Z,60.53
2018-09-17T21:18:37.795Z,60.76
2018-09-17T21:21:08.194Z,61.16
2018-09-17T21:23:38.529Z,60.97
2018-09-17T21:26:09.220Z,60.46
2018-09-17T21:28:39.697Z,60.82
2018-09-17T21:31:10.143Z,60.80
2018-09-17T21:33:40.647Z,61.34
2018-09-17T21:36:11.163Z,62.13
2018-09-17T21:38:41.371Z,62.56
2018-09-17T21:41:11.904Z,62.33
2018-09-17T21:43:42.354Z,63.06
2018-09-17T21:46:12.790Z,63.43
2018-09-17T21:48:43.162Z,62.82
2018-09-17T21:51:13.628Z,63.11
2018-09-17T21:53:44.238Z,63.59
2018-09-17T21:56:14.787Z,63.17
2018-09-17T21:58:45.801Z,63.77
2018-09-17T22:01:20.444Z,64.01
2018-09-17T22:03:51.432Z,64.27
2018-09-17T22:06:21.949Z,64.42
2018-09-17T22:08:52.483Z,64.44
2018-09-17T22:11:23.152Z,64.08
2018-09-17T22:13:53.601Z,64.54
2018-09-17T22:16:24.267Z,65.44
2018-09-17T22:18:54.711Z,65.16
2018-09-17T22:21:25.188Z,64.40
2018-09-17T22:23:55.775Z,64.96
2018-09-17T22:26:26.228Z,64.82
2018-09-17T22:28:56.628Z,63.97
2018-09-17T22:31:27.520Z,65.45
2018-09-17T22:33:57.939Z,64.48
2018-09-17T22:36:28.398Z,64.47
2018-09-17T22:38:59.061Z,64.65
2018-09-17T22:41:29.484Z,64.60
2018-09-17T22:43:59.806Z,65.01
2018-09-17T22:46:30.082Z,65.32
2018-09-17T22:49:02.211Z,64.93
2018-09-17T22:51:32.719Z,65.02
2018-09-17T22:54:03.153Z,65.25
2018-09-17T22:56:33.625Z,64.17
2018-09-17T22:59:04.363Z,64.54
2018-09-17T23:01:34.788Z,65.77
2018-09-17T23:04:05.293Z,65.33
2018-09-17T23:06:35.605Z,65.92
2018-09-17T23:09:08.780Z,64.87
2018-09-17T23:11:39.292Z,66.05
2018-09-17T23:14:09.536Z,65.09
2018-09-17T23:16:40.448Z,65.87
2018-09-17T23:19:10.976Z,65.67
2018-09-17T23:21:41.463Z,65.58
2018-09-17T23:24:11.873Z,66.02
2018-09-17T23:26:42.387Z,65.93
2018-09-17T23:29:12.759Z,65.98
2018-09-17T23:31:43.064Z,64.71
2018-09-17T23:34:13.820Z,65.05
2018-09-17T23:36:44.276Z,65.80
2018-09-17T23:39:14.743Z,65.28
2018-09-17T23:41:45.149Z,65.15
2018-09-17T23:44:15.403Z,66.00
2018-09-17T23:46:45.904Z,65.25
2018-09-17T23:49:16.271Z,65.33
2018-09-17T23:51:46.639Z,66.14
2018-09-17T23:54:16.943Z,65.12
2018-09-17T23:56:47.367Z,65.03
2018-09-17T23:59:17.924Z,64.62
